Alyeska Resort
Max's Hourly Weather Roundup
ALYESKA_MAX 7/28/2016
Click Here for Graph

        DATE  TIME   Air  Wind  Wind  Wind  BATT   Rel
                    Temp   Spd   Dir  Gust  Volt  Hum%
                      F   MPH   AVG   MPH   AVG   AVG

   7/28/2016 21:00    48    12   118    21 13.82    90
   7/28/2016 20:00    50     5   105    15 13.80    91
   7/28/2016 19:00    50     4   172    11 13.74    95
   7/28/2016 18:00    52     8   124    19 13.67    90
   7/28/2016 17:00    51     5   186    14 13.64    98
   7/28/2016 16:00    53     5   149    13 13.60    96
   7/28/2016 15:00    51     5   220    12 13.61    97
   7/28/2016 14:00    50     9   134    21 13.61    94
   7/28/2016 13:00    50     8   144    24 13.61    98
   7/28/2016 12:00    51     4   159    24 13.60    99
   7/28/2016 11:00    49     8   121    22 13.64   100
   7/28/2016 10:00    49     3   178     9 13.66   100
   7/28/2016 09:00    50     2   126    13 13.73    98
   7/28/2016 08:00    49     7    91    22 13.31    98
   7/28/2016 07:00    48    12    57    35 12.77    99
   7/28/2016 06:00    49    13    49    25 12.76    98
   7/28/2016 05:00    49    11    62    20 12.78    96
   7/28/2016 04:00    49    15    58    30 12.80    97
   7/28/2016 03:00    49    13    37    19 12.83   100
   7/28/2016 02:00    49     8    64    18 12.87    99
   7/28/2016 01:00    50    13    67    26 12.91    97
   7/27/2016 24:00    49    11    51    25 12.99    96
   7/27/2016 23:00    49    13    41    22 13.13    94
   7/27/2016 22:00    50    20    29    31 13.34    93


Click Here for Graph